createdAt,value
2018-02-22T00:02:03.784Z,-12.40
2018-02-22T00:04:31.486Z,-12.30
2018-02-22T00:06:59.061Z,-12.20
2018-02-22T00:09:26.499Z,-12.20
2018-02-22T00:11:54.181Z,-11.90
2018-02-22T00:14:21.678Z,-11.80
2018-02-22T00:16:48.747Z,-11.90
2018-02-22T00:19:15.696Z,-11.80
2018-02-22T00:21:43.404Z,-11.60
2018-02-22T00:24:10.051Z,-11.60
2018-02-22T00:26:36.779Z,-11.60
2018-02-22T00:29:04.325Z,-11.60
2018-02-22T00:31:31.719Z,-11.60
2018-02-22T00:33:58.569Z,-11.60
2018-02-22T00:36:26.472Z,-11.50
2018-02-22T00:38:53.107Z,-11.40
2018-02-22T00:41:20.073Z,-11.40
2018-02-22T00:43:46.716Z,-11.20
2018-02-22T00:46:13.395Z,-11.20
2018-02-22T00:48:40.941Z,-11.10
2018-02-22T00:51:07.606Z,-11.10
2018-02-22T00:53:34.577Z,-11.00
2018-02-22T00:56:01.415Z,-10.80
2018-02-22T00:58:28.880Z,-10.60
2018-02-22T01:00:57.855Z,-10.40
2018-02-22T01:03:24.800Z,-10.50
2018-02-22T01:05:51.428Z,-10.50
2018-02-22T01:08:18.115Z,-10.50
2018-02-22T01:10:44.741Z,-10.40
2018-02-22T01:13:11.459Z,-10.40
2018-02-22T01:15:38.541Z,-10.30
2018-02-22T01:18:05.410Z,-10.30
2018-02-22T01:20:32.071Z,-10.20
2018-02-22T01:22:59.131Z,-10.20
2018-02-22T01:25:26.060Z,-10.20
2018-02-22T01:27:52.712Z,-10.10
2018-02-22T01:30:40.717Z,-9.90
2018-02-22T01:33:13.278Z,-9.90
2018-02-22T01:35:39.998Z,-10.00
2018-02-22T01:38:07.003Z,-10.00
2018-02-22T01:40:34.691Z,-9.70
2018-02-22T01:43:01.313Z,-9.70
2018-02-22T01:45:29.216Z,-9.60
2018-02-22T01:47:55.859Z,-9.60
2018-02-22T01:50:22.492Z,-9.50
2018-02-22T01:52:49.558Z,-9.50
2018-02-22T01:55:16.179Z,-9.50
2018-02-22T01:57:43.910Z,-9.50
2018-02-22T02:00:10.667Z,-9.50
2018-02-22T02:02:37.529Z,-9.40
2018-02-22T02:05:04.212Z,-9.40
2018-02-22T02:07:31.162Z,-9.40
2018-02-22T02:09:57.849Z,-9.40
2018-02-22T02:12:24.755Z,-9.40
2018-02-22T02:14:51.423Z,-9.30
2018-02-22T02:17:18.064Z,-9.40
2018-02-22T02:19:44.879Z,-9.40
2018-02-22T02:22:11.539Z,-9.40
2018-02-22T02:24:38.276Z,-9.40
2018-02-22T02:27:04.940Z,-9.50
2018-02-22T02:29:31.852Z,-9.30
2018-02-22T02:31:59.371Z,-9.40
2018-02-22T02:34:26.095Z,-9.40
2018-02-22T02:36:52.811Z,-9.30
2018-02-22T02:39:21.007Z,-9.20
2018-02-22T02:41:47.804Z,-9.20
2018-02-22T02:44:14.736Z,-9.20
2018-02-22T02:46:41.557Z,-9.30
2018-02-22T02:49:08.293Z,-9.40
2018-02-22T02:51:34.978Z,-9.40
2018-02-22T02:54:01.723Z,-9.40
2018-02-22T02:56:28.550Z,-9.40
2018-02-22T02:58:55.885Z,-9.30
2018-02-22T03:01:22.915Z,-9.40
2018-02-22T03:03:50.615Z,-9.30
2018-02-22T03:06:17.444Z,-9.40
2018-02-22T03:08:45.347Z,-9.30
2018-02-22T03:11:11.988Z,-9.30
2018-02-22T03:13:38.890Z,-9.20
2018-02-22T03:16:05.548Z,-9.20
2018-02-22T03:18:32.949Z,-9.00
2018-02-22T03:21:00.376Z,-8.90
2018-02-22T03:23:27.901Z,-8.90
2018-02-22T03:25:54.551Z,-8.90
2018-02-22T03:28:21.208Z,-8.90
2018-02-22T03:30:48.806Z,-8.90
2018-02-22T03:33:15.604Z,-8.90
2018-02-22T03:35:42.330Z,-8.90
2018-02-22T03:38:08.970Z,-8.80
2018-02-22T03:40:36.042Z,-8.80
2018-02-22T03:43:02.732Z,-8.90
2018-02-22T03:45:29.981Z,-8.90
2018-02-22T03:47:57.567Z,-8.80
2018-02-22T03:50:25.179Z,-8.90
2018-02-22T03:52:51.849Z,-8.80
2018-02-22T03:55:19.474Z,-8.80
2018-02-22T03:57:46.527Z,-8.80
2018-02-22T04:00:13.724Z,-8.80
2018-02-22T04:02:40.368Z,-8.80
2018-02-22T04:05:07.039Z,-8.70
2018-02-22T04:07:33.715Z,-8.70
2018-02-22T04:10:00.343Z,-8.60
2018-02-22T04:12:26.964Z,-8.60
2018-02-22T04:14:55.437Z,-8.60
2018-02-22T04:17:22.875Z,-8.50
2018-02-22T04:19:49.812Z,-8.50
2018-02-22T04:22:17.569Z,-8.40
2018-02-22T04:24:44.416Z,-8.50
2018-02-22T04:27:11.038Z,-8.50
2018-02-22T04:29:37.696Z,-8.40
2018-02-22T04:32:04.397Z,-8.40
2018-02-22T04:34:31.117Z,-8.40
2018-02-22T04:36:58.166Z,-8.50
2018-02-22T04:39:24.891Z,-8.40
2018-02-22T04:41:51.972Z,-8.40
2018-02-22T04:44:18.759Z,-8.40
2018-02-22T04:46:45.499Z,-8.40
2018-02-22T04:49:12.940Z,-8.20
2018-02-22T04:51:39.929Z,-8.20
2018-02-22T04:54:06.549Z,-8.20
2018-02-22T04:56:33.959Z,-8.20
2018-02-22T04:59:00.617Z,-8.30
2018-02-22T05:01:27.373Z,-8.10
2018-02-22T05:03:54.108Z,-8.10
2018-02-22T05:06:20.980Z,-8.00
2018-02-22T05:08:47.666Z,-8.00
2018-02-22T05:11:15.338Z,-8.00
2018-02-22T05:13:42.040Z,-7.90
2018-02-22T05:16:09.468Z,-7.90
2018-02-22T05:18:36.208Z,-7.90
2018-02-22T05:21:03.313Z,-8.00
2018-02-22T05:23:30.317Z,-8.00
2018-02-22T05:25:57.320Z,-8.00
2018-02-22T05:28:25.668Z,-8.10
2018-02-22T05:30:52.427Z,-8.10
2018-02-22T05:33:19.310Z,-8.00
2018-02-22T05:35:46.729Z,-7.90
2018-02-22T05:38:13.549Z,-7.90
2018-02-22T05:40:40.293Z,-7.90
2018-02-22T05:43:06.953Z,-7.90
2018-02-22T05:45:33.663Z,-7.80
2018-02-22T05:48:00.355Z,-7.80
2018-02-22T05:50:27.317Z,-7.90
2018-02-22T05:52:55.038Z,-8.00
2018-02-22T05:55:21.924Z,-8.00
2018-02-22T05:57:48.878Z,-7.90
2018-02-22T06:00:16.197Z,-7.80
2018-02-22T06:02:50.312Z,-7.80
2018-02-22T06:05:17.567Z,-7.70
2018-02-22T06:07:45.540Z,-7.80
2018-02-22T06:10:12.664Z,-7.80
2018-02-22T06:12:40.078Z,-7.70
2018-02-22T06:15:07.906Z,-7.70
2018-02-22T06:17:35.390Z,-7.60
2018-02-22T06:20:02.550Z,-7.60
2018-02-22T06:22:30.316Z,-7.60
2018-02-22T06:24:57.008Z,-7.50
2018-02-22T06:27:23.856Z,-7.50
2018-02-22T06:29:51.636Z,-7.40
2018-02-22T06:32:18.428Z,-7.50
2018-02-22T06:34:45.278Z,-7.50
2018-02-22T06:37:12.570Z,-7.60
2018-02-22T06:39:39.448Z,-7.60
2018-02-22T06:42:07.310Z,-7.50
2018-02-22T06:44:35.842Z,-7.50
2018-02-22T06:47:03.001Z,-7.50
2018-02-22T06:49:29.950Z,-7.30
2018-02-22T06:51:56.797Z,-7.30
2018-02-22T06:54:23.507Z,-7.30
2018-02-22T06:56:51.124Z,-7.10
2018-02-22T06:59:17.965Z,-7.10
2018-02-22T07:01:44.872Z,-7.00
2018-02-22T07:04:11.546Z,-7.00
2018-02-22T07:06:38.343Z,-6.90
2018-02-22T07:09:05.077Z,-6.80
2018-02-22T07:11:32.102Z,-6.60
2018-02-22T07:13:59.252Z,-6.50
2018-02-22T07:16:25.987Z,-6.40
2018-02-22T07:18:54.386Z,-6.40
2018-02-22T07:21:21.247Z,-6.50
2018-02-22T07:23:47.957Z,-6.50
2018-02-22T07:26:15.435Z,-6.30
2018-02-22T07:28:42.789Z,-6.30
2018-02-22T07:31:10.551Z,-6.20
2018-02-22T07:33:37.188Z,-6.20
2018-02-22T07:36:04.981Z,-6.20
2018-02-22T07:38:31.953Z,-6.20
2018-02-22T07:40:58.882Z,-6.20
2018-02-22T07:43:25.605Z,-5.90
2018-02-22T07:45:53.402Z,-5.70
2018-02-22T07:48:21.169Z,-5.80
2018-02-22T07:50:48.431Z,-5.80
2018-02-22T07:53:15.466Z,-5.90
2018-02-22T07:55:42.522Z,-5.70
2018-02-22T07:58:10.070Z,-5.70
2018-02-22T08:00:37.562Z,-5.70
2018-02-22T08:03:04.600Z,-5.80
2018-02-22T08:05:32.590Z,-5.60
2018-02-22T08:07:59.240Z,-5.70
2018-02-22T08:10:25.979Z,-5.70
2018-02-22T08:12:53.448Z,-5.60
2018-02-22T08:15:20.109Z,-5.50
2018-02-22T08:17:47.036Z,-5.50
2018-02-22T08:20:13.780Z,-5.20
2018-02-22T08:22:41.046Z,-4.80
2018-02-22T08:25:08.715Z,-4.40
2018-02-22T08:27:36.232Z,-4.30
2018-02-22T08:30:02.997Z,-4.30
2018-02-22T08:32:30.175Z,-3.80
2018-02-22T08:34:56.882Z,-4.00
2018-02-22T08:37:23.770Z,-4.10
2018-02-22T08:39:51.487Z,-4.10
2018-02-22T08:42:18.164Z,-3.80
2018-02-22T08:44:45.135Z,-3.70
2018-02-22T08:47:12.600Z,-3.20
2018-02-22T08:49:39.488Z,-3.30
2018-02-22T08:52:07.469Z,-3.10
2018-02-22T08:54:34.561Z,-3.00
2018-02-22T08:57:01.327Z,-2.80
2018-02-22T08:59:28.409Z,-2.90
2018-02-22T09:01:55.271Z,-3.00
2018-02-22T09:04:22.776Z,-2.80
2018-02-22T09:06:50.764Z,-3.00
2018-02-22T09:09:18.639Z,-3.00
2018-02-22T09:11:45.503Z,-2.70
2018-02-22T09:14:12.923Z,-3.10
2018-02-22T09:16:40.639Z,-3.30
2018-02-22T09:19:07.437Z,-3.30
2018-02-22T09:21:35.050Z,-2.80
2018-02-22T09:24:03.294Z,-2.80
2018-02-22T09:26:31.679Z,-2.80
2018-02-22T09:28:58.966Z,-3.20
2018-02-22T09:31:26.231Z,-3.10
2018-02-22T09:33:53.022Z,-2.90
2018-02-22T09:36:20.461Z,-2.80
2018-02-22T09:38:47.409Z,-2.80
2018-02-22T09:41:14.815Z,-2.20
2018-02-22T09:43:41.926Z,-2.20
2018-02-22T09:46:08.571Z,-2.20
2018-02-22T09:48:35.372Z,-2.40
2018-02-22T09:51:02.363Z,-2.00
2018-02-22T09:53:29.023Z,-1.60
2018-02-22T09:55:56.231Z,-1.30
2018-02-22T09:58:22.908Z,-1.50
2018-02-22T10:00:49.567Z,-2.00
2018-02-22T10:03:16.321Z,-2.10
2018-02-22T10:05:43.523Z,-2.00
2018-02-22T10:08:10.147Z,-1.90
2018-02-22T10:10:37.009Z,-1.40
2018-02-22T10:13:03.860Z,-1.30
2018-02-22T10:15:30.607Z,-1.00
2018-02-22T10:17:57.243Z,-1.10
2018-02-22T10:20:23.982Z,-0.90
2018-02-22T10:22:51.447Z,-1.50
2018-02-22T10:25:18.371Z,-2.00
2018-02-22T10:27:44.985Z,-2.30
2018-02-22T10:30:19.986Z,-2.60
2018-02-22T10:32:47.245Z,-2.70
2018-02-22T10:35:14.401Z,-2.40
2018-02-22T10:37:41.312Z,-2.40
2018-02-22T10:40:07.931Z,-2.50
2018-02-22T10:42:34.568Z,-2.40
2018-02-22T10:45:01.890Z,-2.40
2018-02-22T10:47:28.618Z,-2.30
2018-02-22T10:49:55.390Z,-1.80
2018-02-22T10:52:22.443Z,-1.50
2018-02-22T10:54:49.957Z,-1.60
2018-02-22T10:57:16.919Z,-1.70
2018-02-22T10:59:43.710Z,-1.40
2018-02-22T11:02:16.799Z,-1.30
2018-02-22T11:04:43.646Z,-1.40
2018-02-22T11:07:10.493Z,-1.30
2018-02-22T11:09:37.751Z,-1.30
2018-02-22T11:12:04.602Z,-1.60
2018-02-22T11:14:31.274Z,-1.60
2018-02-22T11:16:58.250Z,-1.50
2018-02-22T11:19:24.964Z,-1.20
2018-02-22T11:21:51.778Z,-1.30
2018-02-22T11:24:18.759Z,-1.40
2018-02-22T11:26:45.543Z,-1.70
2018-02-22T11:29:12.189Z,-1.40
2018-02-22T11:31:39.391Z,-1.50
2018-02-22T11:34:06.102Z,-1.50
2018-02-22T11:36:33.600Z,-1.70
2018-02-22T11:39:00.345Z,-1.70
2018-02-22T11:41:27.389Z,-1.40
2018-02-22T11:43:54.961Z,-1.50
2018-02-22T11:46:21.810Z,-1.30
2018-02-22T11:48:48.530Z,-1.10
2018-02-22T11:51:15.968Z,-1.80
2018-02-22T11:53:43.250Z,-1.80
2018-02-22T11:56:11.141Z,-1.80
2018-02-22T11:58:37.808Z,-1.80
2018-02-22T12:01:04.948Z,-1.70
2018-02-22T12:03:31.758Z,-1.60
2018-02-22T12:05:58.753Z,-1.50
2018-02-22T12:08:25.600Z,-1.40
2018-02-22T12:10:53.149Z,-1.50
2018-02-22T12:13:20.930Z,-1.40
2018-02-22T12:15:48.805Z,-1.40
2018-02-22T12:18:15.780Z,-1.30
2018-02-22T12:20:42.579Z,-1.20
2018-02-22T12:23:10.233Z,-1.20
2018-02-22T12:25:37.754Z,-1.30
2018-02-22T12:28:04.582Z,-1.30
2018-02-22T12:30:32.393Z,-1.10
2018-02-22T12:33:00.315Z,-1.10
2018-02-22T12:35:27.586Z,-1.20
2018-02-22T12:37:54.241Z,-0.80
2018-02-22T12:40:21.127Z,-0.80
2018-02-22T12:42:47.819Z,-0.80
2018-02-22T12:45:14.627Z,-0.90
2018-02-22T12:47:42.215Z,-1.30
2018-02-22T12:50:09.905Z,-1.50
2018-02-22T12:52:36.650Z,-1.50
2018-02-22T12:55:03.664Z,-1.70
2018-02-22T12:57:30.550Z,-1.80
2018-02-22T12:59:57.603Z,-1.60
2018-02-22T13:02:24.259Z,-1.80
2018-02-22T13:04:50.993Z,-1.80
2018-02-22T13:07:17.841Z,-2.00
2018-02-22T13:09:44.694Z,-2.20
2018-02-22T13:12:11.849Z,-2.30
2018-02-22T13:14:39.411Z,-2.40
2018-02-22T13:17:06.260Z,-2.50
2018-02-22T13:19:33.660Z,-2.60
2018-02-22T13:22:00.705Z,-2.80
2018-02-22T13:24:27.936Z,-2.90
2018-02-22T13:26:54.608Z,-2.90
2018-02-22T13:29:21.541Z,-3.10
2018-02-22T13:31:48.582Z,-3.20
2018-02-22T13:34:21.860Z,-3.20
2018-02-22T13:36:49.715Z,-3.40
2018-02-22T13:39:17.509Z,-3.50
2018-02-22T13:41:45.389Z,-3.60
2018-02-22T13:44:24.312Z,-3.60
2018-02-22T13:46:51.421Z,-3.70
2018-02-22T13:49:30.440Z,-3.70
2018-02-22T13:51:57.509Z,-3.80
2018-02-22T13:54:24.402Z,-3.90
2018-02-22T13:57:03.405Z,-3.70
2018-02-22T13:59:30.211Z,-3.60
2018-02-22T14:02:19.737Z,-3.40
2018-02-22T14:04:46.997Z,-3.40
2018-02-22T14:07:13.864Z,-3.30
2018-02-22T14:09:40.901Z,-3.20
2018-02-22T14:12:07.641Z,-3.20
2018-02-22T14:14:34.642Z,-3.20
2018-02-22T14:17:01.386Z,-3.30
2018-02-22T14:19:28.123Z,-3.30
2018-02-22T14:21:54.752Z,-3.30
2018-02-22T14:24:21.621Z,-3.30
2018-02-22T14:26:48.236Z,-3.30
2018-02-22T14:29:15.276Z,-3.30
2018-02-22T14:31:42.020Z,-3.30
2018-02-22T14:34:09.891Z,-3.50
2018-02-22T14:36:36.972Z,-3.50
2018-02-22T14:39:05.406Z,-3.50
2018-02-22T14:41:32.756Z,-3.60
2018-02-22T14:44:00.004Z,-3.60
2018-02-22T14:46:27.047Z,-3.70
2018-02-22T14:48:53.657Z,-3.70
2018-02-22T14:51:20.341Z,-3.80
2018-02-22T14:53:47.315Z,-3.80
2018-02-22T14:56:14.806Z,-3.90
2018-02-22T14:58:41.658Z,-4.00
2018-02-22T15:01:09.528Z,-4.00
2018-02-22T15:03:36.168Z,-4.00
2018-02-22T15:06:03.309Z,-4.10
2018-02-22T15:08:30.171Z,-4.00
2018-02-22T15:10:56.979Z,-4.00
2018-02-22T15:13:24.076Z,-4.00
2018-02-22T15:15:50.925Z,-4.10
2018-02-22T15:18:17.566Z,-4.30
2018-02-22T15:20:44.650Z,-4.30
2018-02-22T15:23:11.673Z,-4.30
2018-02-22T15:25:38.297Z,-4.40
2018-02-22T15:28:06.296Z,-4.60
2018-02-22T15:30:33.041Z,-4.70
2018-02-22T15:33:00.606Z,-4.70
2018-02-22T15:35:27.962Z,-4.80
2018-02-22T15:37:54.560Z,-4.90
2018-02-22T15:40:21.996Z,-5.00
2018-02-22T15:42:48.772Z,-5.10
2018-02-22T15:45:17.079Z,-5.30
2018-02-22T15:47:44.664Z,-5.40
2018-02-22T15:50:11.923Z,-5.40
2018-02-22T15:52:38.563Z,-5.40
2018-02-22T15:55:05.617Z,-5.50
2018-02-22T15:57:32.450Z,-5.50
2018-02-22T15:59:59.195Z,-5.60
2018-02-22T16:02:26.984Z,-5.80
2018-02-22T16:04:54.802Z,-5.80
2018-02-22T16:07:21.496Z,-5.90
2018-02-22T16:09:48.540Z,-6.10
2018-02-22T16:12:15.505Z,-6.20
2018-02-22T16:14:42.308Z,-6.40
2018-02-22T16:17:10.931Z,-6.70
2018-02-22T16:19:37.675Z,-6.70
2018-02-22T16:22:04.638Z,-6.80
2018-02-22T16:24:31.278Z,-6.90
2018-02-22T16:26:58.539Z,-7.10
2018-02-22T16:29:26.104Z,-7.20
2018-02-22T16:31:53.229Z,-7.30
2018-02-22T16:34:20.734Z,-7.60
2018-02-22T16:36:47.967Z,-7.60
2018-02-22T16:39:19.404Z,-7.70
2018-02-22T16:41:46.346Z,-7.80
2018-02-22T16:44:13.838Z,-7.80
2018-02-22T16:46:41.114Z,-7.90
2018-02-22T16:49:07.967Z,-8.00
2018-02-22T16:51:34.904Z,-8.10
2018-02-22T16:54:02.777Z,-8.20
2018-02-22T16:56:29.555Z,-8.30
2018-02-22T16:58:59.427Z,-8.40
2018-02-22T17:01:27.311Z,-8.50
2018-02-22T17:03:54.379Z,-8.50
2018-02-22T17:06:21.826Z,-8.60
2018-02-22T17:08:49.512Z,-8.60
2018-02-22T17:11:16.520Z,-8.80
2018-02-22T17:13:44.423Z,-8.80
2018-02-22T17:16:11.144Z,-8.80
2018-02-22T17:18:39.046Z,-8.90
2018-02-22T17:21:06.195Z,-8.90
2018-02-22T17:23:33.806Z,-8.90
2018-02-22T17:26:07.161Z,-9.00
2018-02-22T17:28:42.907Z,-9.00
2018-02-22T17:31:15.589Z,-9.10
2018-02-22T17:33:42.540Z,-9.20
2018-02-22T17:36:09.799Z,-9.20
2018-02-22T17:38:51.900Z,-9.20
2018-02-22T17:41:19.051Z,-9.30
2018-02-22T17:43:46.711Z,-9.20
2018-02-22T17:46:13.877Z,-9.40
2018-02-22T17:48:40.723Z,-9.30
2018-02-22T17:51:08.597Z,-9.40
2018-02-22T17:53:35.645Z,-9.40
2018-02-22T17:56:02.314Z,-9.60
2018-02-22T17:58:28.996Z,-9.60
2018-02-22T18:00:56.601Z,-9.70
2018-02-22T18:03:23.347Z,-9.70
2018-02-22T18:05:50.404Z,-9.60
2018-02-22T18:08:17.149Z,-9.60
2018-02-22T18:10:44.098Z,-9.70
2018-02-22T18:13:11.337Z,-9.80
2018-02-22T18:15:38.043Z,-9.90
2018-02-22T18:18:05.979Z,-9.90
2018-02-22T18:20:33.207Z,-9.90
2018-02-22T18:22:59.844Z,-9.90
2018-02-22T18:25:26.626Z,-9.90
2018-02-22T18:27:53.675Z,-9.90
2018-02-22T18:30:20.730Z,-9.80
2018-02-22T18:32:47.886Z,-9.90
2018-02-22T18:35:14.716Z,-9.90
2018-02-22T18:37:48.207Z,-10.10
2018-02-22T18:40:21.702Z,-10.10
2018-02-22T18:42:49.230Z,-10.30
2018-02-22T18:45:15.839Z,-10.30
2018-02-22T18:47:43.101Z,-10.30
2018-02-22T18:50:09.946Z,-10.20
2018-02-22T18:52:37.420Z,-10.20
2018-02-22T18:55:04.278Z,-10.20
2018-02-22T18:57:31.208Z,-10.10
2018-02-22T18:59:57.988Z,-10.10
2018-02-22T19:02:24.689Z,-10.10
2018-02-22T19:04:52.166Z,-10.20
2018-02-22T19:07:19.165Z,-10.40
2018-02-22T19:09:46.270Z,-10.40
2018-02-22T19:12:15.265Z,-10.30
2018-02-22T19:14:43.325Z,-10.30
2018-02-22T19:17:11.578Z,-10.10
2018-02-22T19:19:38.310Z,-10.10
2018-02-22T19:22:05.732Z,-10.00
2018-02-22T19:24:40.901Z,-10.00
2018-02-22T19:27:07.695Z,-10.00
2018-02-22T19:29:35.177Z,-10.00
2018-02-22T19:32:02.545Z,-10.10
2018-02-22T19:34:29.330Z,-10.10
2018-02-22T19:36:55.980Z,-9.90
2018-02-22T19:39:24.724Z,-9.80
2018-02-22T19:41:52.390Z,-9.80
2018-02-22T19:44:19.311Z,-9.60
2018-02-22T19:46:46.571Z,-9.50
2018-02-22T19:49:14.144Z,-9.30
2018-02-22T19:51:42.028Z,-9.30
2018-02-22T19:54:09.176Z,-9.40
2018-02-22T19:56:36.627Z,-9.20
2018-02-22T19:59:05.040Z,-9.10
2018-02-22T20:01:31.785Z,-9.10
2018-02-22T20:03:59.862Z,-8.90
2018-02-22T20:06:27.846Z,-8.80
2018-02-22T20:08:54.925Z,-8.80
2018-02-22T20:11:21.567Z,-8.70
2018-02-22T20:13:49.408Z,-8.80
2018-02-22T20:16:16.227Z,-8.90
2018-02-22T20:18:44.040Z,-8.70
2018-02-22T20:21:10.875Z,-8.70
2018-02-22T20:23:37.738Z,-8.70
2018-02-22T20:26:05.683Z,-8.70
2018-02-22T20:28:34.282Z,-8.60
2018-02-22T20:31:01.974Z,-8.60
2018-02-22T20:33:28.910Z,-8.50
2018-02-22T20:35:55.625Z,-8.40
2018-02-22T20:38:22.894Z,-8.20
2018-02-22T20:40:50.369Z,-8.20
2018-02-22T20:43:17.168Z,-8.20
2018-02-22T20:45:44.782Z,-8.20
2018-02-22T20:48:13.195Z,-8.00
2018-02-22T20:50:40.221Z,-8.00
2018-02-22T20:53:21.955Z,-7.90
2018-02-22T20:55:48.754Z,-7.90
2018-02-22T20:58:15.480Z,-7.80
2018-02-22T21:00:42.909Z,-7.80
2018-02-22T21:03:09.627Z,-7.80
2018-02-22T21:05:36.339Z,-7.70
2018-02-22T21:08:04.510Z,-7.70
2018-02-22T21:10:31.282Z,-7.70
2018-02-22T21:12:58.024Z,-7.70
2018-02-22T21:15:24.773Z,-7.70
2018-02-22T21:17:51.519Z,-7.50
2018-02-22T21:20:18.263Z,-7.60
2018-02-22T21:22:45.525Z,-7.60
2018-02-22T21:25:12.273Z,-7.50
2018-02-22T21:27:39.312Z,-7.40
2018-02-22T21:30:06.143Z,-7.40
2018-02-22T21:32:33.726Z,-7.30
2018-02-22T21:35:01.277Z,-7.40
2018-02-22T21:37:28.124Z,-7.40
2018-02-22T21:39:55.919Z,-7.30
2018-02-22T21:42:22.769Z,-7.30
2018-02-22T21:44:49.483Z,-7.30
2018-02-22T21:47:16.976Z,-7.20
2018-02-22T21:49:43.703Z,-7.20
2018-02-22T21:52:11.147Z,-7.10
2018-02-22T21:54:39.434Z,-7.10
2018-02-22T21:57:06.216Z,-7.10
2018-02-22T21:59:32.961Z,-7.00
2018-02-22T22:01:59.812Z,-6.90
2018-02-22T22:04:26.576Z,-6.90
2018-02-22T22:06:55.039Z,-6.80
2018-02-22T22:09:21.659Z,-6.80
2018-02-22T22:11:49.557Z,-6.70
2018-02-22T22:14:16.302Z,-6.70
2018-02-22T22:16:43.124Z,-6.70
2018-02-22T22:19:10.821Z,-6.70
2018-02-22T22:21:37.974Z,-6.70
2018-02-22T22:24:04.719Z,-6.60
2018-02-22T22:26:31.676Z,-6.50
2018-02-22T22:28:58.724Z,-6.50
2018-02-22T22:31:25.676Z,-6.40
2018-02-22T22:33:53.237Z,-6.30
2018-02-22T22:36:19.903Z,-6.40
2018-02-22T22:38:46.618Z,-6.30
2018-02-22T22:41:14.197Z,-6.40
2018-02-22T22:43:41.352Z,-6.40
2018-02-22T22:46:08.200Z,-6.40
2018-02-22T22:48:35.239Z,-6.40
2018-02-22T22:51:03.739Z,-6.30
2018-02-22T22:53:30.485Z,-6.40
2018-02-22T22:55:57.945Z,-6.30
2018-02-22T22:58:24.778Z,-6.30
2018-02-22T23:00:51.851Z,-6.30
2018-02-22T23:03:18.901Z,-6.20
2018-02-22T23:05:45.752Z,-6.20
2018-02-22T23:08:12.446Z,-6.10
2018-02-22T23:10:40.778Z,-6.00
2018-02-22T23:13:07.683Z,-6.00
2018-02-22T23:15:34.687Z,-6.00
2018-02-22T23:18:01.633Z,-6.00
2018-02-22T23:20:28.376Z,-6.00
2018-02-22T23:22:55.201Z,-6.00
2018-02-22T23:25:23.099Z,-6.00
2018-02-22T23:27:49.843Z,-6.00
2018-02-22T23:30:16.669Z,-5.90
2018-02-22T23:32:44.872Z,-5.90
2018-02-22T23:35:12.002Z,-5.90
2018-02-22T23:37:39.490Z,-5.90
2018-02-22T23:40:08.281Z,-5.90
2018-02-22T23:42:35.235Z,-5.90
2018-02-22T23:45:01.963Z,-5.90
2018-02-22T23:47:29.648Z,-5.80
2018-02-22T23:49:56.810Z,-5.90
2018-02-22T23:52:25.362Z,-5.80
2018-02-22T23:54:52.647Z,-5.80
2018-02-22T23:57:20.215Z,-5.80
2018-02-22T23:59:47.712Z,-5.90
